Time;durP1;ratioP1;P1;durP2;ratioP2;P2;SDS_P1;SDS_P2;PMS_P1;PMS_P2;Temp;Humidity;BMP_temperature;BMP_pressure;BME280_temperature;BME280_humidity;BME280_pressure;Samples;Min_cycle;Max_cycle;Signal;HPM_P1;HPM_P2
2023/09/04 00:00:57;;;;;;;5.57;3.23;;;;;;;16.91;100.00;99091.44;5074607;28;20274;-76
2023/09/04 00:03:26;;;;;;;4.60;3.40;;;;;;;16.94;100.00;99090.16;5074815;28;20232;-76
2023/09/04 00:05:52;;;;;;;3.40;3.20;;;;;;;16.86;100.00;99091.31;5074257;28;20211;-76
2023/09/04 00:08:19;;;;;;;3.33;2.93;;;;;;;16.94;100.00;99093.66;5074608;28;20230;-76
2023/09/04 00:10:45;;;;;;;3.60;3.10;;;;;;;16.98;100.00;99089.47;5074388;28;20223;-76
2023/09/04 00:13:13;;;;;;;4.93;3.27;;;;;;;17.07;100.00;99093.44;5074103;28;20667;-76
2023/09/04 00:15:40;;;;;;;4.07;3.27;;;;;;;16.89;100.00;99085.50;5074471;28;20211;-76
2023/09/04 00:18:08;;;;;;;4.77;3.00;;;;;;;16.79;100.00;99087.91;5074132;28;20659;-76
2023/09/04 00:20:34;;;;;;;3.10;2.80;;;;;;;16.81;100.00;99082.31;5074374;28;20240;-76
2023/09/04 00:23:00;;;;;;;3.13;2.83;;;;;;;16.82;100.00;99076.72;5074095;28;20639;-76
2023/09/04 00:25:28;;;;;;;3.47;2.90;;;;;;;16.88;100.00;99072.28;5073680;28;20671;-75
2023/09/04 00:27:56;;;;;;;3.33;3.03;;;;;;;16.83;100.00;99083.72;5073983;28;20215;-75
2023/09/04 00:30:23;;;;;;;3.53;3.10;;;;;;;16.81;100.00;99079.63;5073473;28;20232;-75
2023/09/04 00:32:50;;;;;;;3.00;2.80;;;;;;;16.88;100.00;99073.09;5073864;28;20204;-75
2023/09/04 00:35:16;;;;;;;3.77;3.47;;;;;;;16.75;100.00;99073.34;5073826;28;20208;-75
2023/09/04 00:37:43;;;;;;;3.50;3.17;;;;;;;16.76;100.00;99071.47;5073818;28;20211;-75
2023/09/04 00:40:09;;;;;;;4.20;3.20;;;;;;;16.59;100.00;99074.03;5073633;28;20236;-75
2023/09/04 00:42:36;;;;;;;4.80;2.90;;;;;;;16.50;100.00;99070.06;5073841;28;20210;-75
2023/09/04 00:45:03;;;;;;;3.03;2.83;;;;;;;16.50;100.00;99072.75;5073276;28;20581;-75
2023/09/04 00:47:30;;;;;;;4.67;3.30;;;;;;;16.49;100.00;99070.28;5073338;28;20205;-75
2023/09/04 00:49:57;;;;;;;3.27;2.93;;;;;;;16.50;100.00;99064.69;5073625;28;20228;-75
2023/09/04 00:52:25;;;;;;;3.30;3.00;;;;;;;16.58;100.00;99058.97;5072533;28;20207;-75
2023/09/04 00:54:52;;;;;;;3.77;3.20;;;;;;;16.58;100.00;99055.47;5073694;28;20205;-75
2023/09/04 00:57:19;;;;;;;4.13;3.30;;;;;;;16.59;100.00;99047.19;5073599;28;20209;-75
2023/09/04 00:59:46;;;;;;;4.57;3.10;;;;;;;16.65;100.00;99046.25;5073383;28;20230;-75
2023/09/04 01:02:15;;;;;;;3.13;2.93;;;;;;;16.66;100.00;99057.81;5073194;28;20695;-75
2023/09/04 01:04:41;;;;;;;4.30;3.20;;;;;;;16.59;100.00;99057.91;5073490;28;20208;-75
2023/09/04 01:07:08;;;;;;;6.20;3.40;;;;;;;16.62;100.00;99065.53;5073612;28;20200;-75
2023/09/04 01:09:34;;;;;;;5.00;2.90;;;;;;;16.52;100.00;99065.25;5073440;28;20236;-75
2023/09/04 01:12:08;;;;;;;4.17;2.93;;;;;;;16.64;100.00;99063.41;5073454;28;20203;-75
2023/09/04 01:14:36;;;;;;;5.10;2.90;;;;;;;16.67;100.00;99062.94;5073231;28;20533;-75
2023/09/04 01:17:04;;;;;;;3.13;2.80;;;;;;;16.55;100.00;99055.94;5073424;28;20201;-75
2023/09/04 01:19:30;;;;;;;3.27;2.77;;;;;;;16.46;100.00;99065.41;5073003;28;20715;-75
2023/09/04 01:21:57;;;;;;;4.03;2.90;;;;;;;16.49;100.00;99059.53;5073336;28;20312;-75
2023/09/04 01:24:23;;;;;;;3.50;2.93;;;;;;;16.46;100.00;99057.34;5073375;28;20204;-75
2023/09/04 01:27:22;;;;;;;3.27;2.97;;;;;;;16.45;100.00;99045.78;5073195;28;20244;-75
2023/09/04 01:29:57;;;;;;;8.33;3.53;;;;;;;16.47;100.00;99053.59;5073142;28;20236;-75
2023/09/04 01:32:31;;;;;;;3.50;3.20;;;;;;;16.41;100.00;99039.22;5073344;28;20546;-75
2023/09/04 01:34:59;;;;;;;3.03;2.70;;;;;;;16.45;100.00;99056.50;5073016;28;20185;-75
2023/09/04 01:37:25;;;;;;;4.47;3.30;;;;;;;16.34;100.00;99048.41;5073241;28;20215;-75
2023/09/04 01:39:53;;;;;;;3.97;3.50;;;;;;;16.36;100.00;99049.81;5073195;28;20225;-75
2023/09/04 01:42:19;;;;;;;3.07;2.87;;;;;;;16.39;100.00;99052.06;5073075;28;20333;-75
2023/09/04 01:44:46;;;;;;;7.47;2.83;;;;;;;16.44;100.00;99049.53;5073107;28;20207;-75
2023/09/04 01:47:12;;;;;;;3.50;3.17;;;;;;;16.49;100.00;99054.19;5073151;28;20222;-75
2023/09/04 01:49:38;;;;;;;3.77;3.47;;;;;;;16.37;100.00;99042.59;5073005;28;20221;-75
2023/09/04 01:52:05;;;;;;;6.37;3.43;;;;;;;16.34;100.00;99043.88;5073165;28;20200;-75
2023/09/04 01:54:31;;;;;;;3.30;3.00;;;;;;;16.36;100.00;99052.50;5073034;28;20205;-75
2023/09/04 01:56:58;;;;;;;5.30;3.27;;;;;;;16.38;100.00;99055.75;5074214;28;20205;-75
2023/09/04 01:59:25;;;;;;;4.50;3.20;;;;;;;16.48;100.00;99057.91;5076553;28;20307;-75
2023/09/04 02:01:52;;;;;;;3.73;3.10;;;;;;;16.43;100.00;99057.78;5076491;28;20216;-75
2023/09/04 02:04:18;;;;;;;3.13;2.90;;;;;;;16.42;100.00;99051.59;5076545;28;20207;-75
2023/09/04 02:06:44;;;;;;;2.83;2.63;;;;;;;16.30;100.00;99058.81;5076283;28;20671;-75
2023/09/04 02:09:11;;;;;;;3.33;3.13;;;;;;;16.49;100.00;99062.22;5076751;28;20228;-75
2023/09/04 02:11:37;;;;;;;3.10;2.87;;;;;;;16.46;100.00;99060.81;5076363;28;20196;-75
2023/09/04 02:14:04;;;;;;;5.27;3.43;;;;;;;16.44;100.00;99062.94;5076390;28;20572;-75
2023/09/04 02:16:30;;;;;;;3.43;3.13;;;;;;;16.26;100.00;99062.16;5076413;28;20261;-75
2023/09/04 02:18:57;;;;;;;6.33;3.43;;;;;;;16.22;100.00;99055.63;5076205;28;20220;-75
2023/09/04 02:21:23;;;;;;;4.07;3.30;;;;;;;16.20;100.00;99052.38;5076125;28;20220;-75
2023/09/04 02:23:51;;;;;;;4.87;2.77;;;;;;;16.21;100.00;99052.13;5076218;28;20208;-75
2023/09/04 02:26:17;;;;;;;3.30;3.10;;;;;;;16.21;100.00;99049.44;5075790;28;20720;-75
2023/09/04 02:28:43;;;;;;;3.53;3.23;;;;;;;16.11;100.00;99046.50;5075539;28;20703;-75
2023/09/04 02:31:11;;;;;;;3.83;3.33;;;;;;;16.02;100.00;99042.50;5075602;28;20224;-75
2023/09/04 02:33:37;;;;;;;4.17;2.97;;;;;;;16.08;100.00;99049.66;5076115;28;20200;-75
2023/09/04 02:36:04;;;;;;;3.50;3.20;;;;;;;16.11;100.00;99035.75;5076015;28;20211;-75
2023/09/04 02:38:31;;;;;;;3.57;3.27;;;;;;;16.11;100.00;99043.00;5075720;28;20208;-75
2023/09/04 02:40:57;;;;;;;3.80;3.13;;;;;;;16.08;100.00;99035.41;5075525;28;20221;-75
2023/09/04 02:43:23;;;;;;;3.57;3.27;;;;;;;16.04;100.00;99042.28;5075580;28;20211;-75
2023/09/04 02:45:50;;;;;;;4.57;3.80;;;;;;;16.08;100.00;99038.94;5075694;28;20205;-75
2023/09/04 02:48:16;;;;;;;3.83;3.23;;;;;;;16.14;100.00;99042.53;5075666;28;20200;-75
2023/09/04 02:50:43;;;;;;;4.53;3.70;;;;;;;16.11;100.00;99043.00;5075589;28;20216;-75
2023/09/04 02:53:10;;;;;;;3.67;3.37;;;;;;;16.19;100.00;99040.81;5075580;28;20246;-75
2023/09/04 02:55:36;;;;;;;4.70;3.03;;;;;;;16.12;100.00;99036.59;5075674;28;20205;-75
2023/09/04 02:58:03;;;;;;;4.77;3.53;;;;;;;16.04;100.00;99027.03;5075145;28;20567;-75
2023/09/04 03:00:30;;;;;;;4.17;3.53;;;;;;;16.01;100.00;99042.75;5075505;28;20224;-75
2023/09/04 03:02:56;;;;;;;4.07;3.30;;;;;;;16.08;100.00;99043.47;5075463;28;20204;-75
2023/09/04 03:05:26;;;;;;;5.17;3.40;;;;;;;16.10;100.00;99036.03;5075157;28;20207;-75
2023/09/04 03:07:52;;;;;;;5.13;3.90;;;;;;;16.13;100.00;99043.59;5075236;28;20209;-75
2023/09/04 03:10:18;;;;;;;4.60;3.17;;;;;;;16.19;100.00;99038.13;5074941;28;20684;-75
2023/09/04 03:12:45;;;;;;;3.67;3.37;;;;;;;16.16;100.00;99038.59;5075236;28;20254;-75
2023/09/04 03:15:11;;;;;;;3.90;3.57;;;;;;;16.10;100.00;99039.50;5074912;28;20549;-75
2023/09/04 03:17:37;;;;;;;3.20;2.87;;;;;;;15.97;100.00;99038.91;5074878;28;20698;-75
2023/09/04 03:20:06;;;;;;;4.10;3.70;;;;;;;15.95;100.00;99033.75;5074814;28;20263;-75
2023/09/04 03:22:33;;;;;;;3.80;3.50;;;;;;;15.92;100.00;99034.22;5074442;28;20691;-75
2023/09/04 03:24:59;;;;;;;3.90;3.50;;;;;;;15.83;100.00;99030.22;5074856;28;20283;-75
2023/09/04 03:27:27;;;;;;;3.60;3.20;;;;;;;15.87;100.00;99036.75;5074798;28;20205;-75
2023/09/04 03:29:53;;;;;;;4.63;3.47;;;;;;;15.87;100.00;99034.06;5074379;28;20610;-75
2023/09/04 03:32:19;;;;;;;3.50;3.27;;;;;;;15.73;100.00;99032.63;5074751;28;20345;-75
2023/09/04 03:34:46;;;;;;;3.90;3.50;;;;;;;15.71;100.00;99032.06;5074584;28;20306;-75
2023/09/04 03:37:12;;;;;;;3.90;2.97;;;;;;;15.81;100.00;99036.84;5074584;28;20201;-75
2023/09/04 03:39:39;;;;;;;3.70;3.20;;;;;;;15.72;100.00;99035.53;5074153;28;20731;-75
2023/09/04 03:42:06;;;;;;;5.20;3.30;;;;;;;15.86;100.00;99035.13;5074343;28;20217;-75
2023/09/04 03:44:33;;;;;;;6.63;3.50;;;;;;;15.75;100.00;99038.56;5073913;28;20204;-75
2023/09/04 03:46:59;;;;;;;4.80;3.33;;;;;;;15.63;100.00;99039.59;5074135;28;20205;-75
2023/09/04 03:49:26;;;;;;;3.67;3.37;;;;;;;15.63;100.00;99045.78;5074369;28;20590;-75
2023/09/04 03:51:52;;;;;;;3.80;3.40;;;;;;;15.70;100.00;99057.22;5074263;28;20200;-75
2023/09/04 03:54:19;;;;;;;4.10;3.73;;;;;;;15.67;100.00;99051.50;5074204;28;20204;-75
2023/09/04 03:56:45;;;;;;;3.50;3.20;;;;;;;15.60;100.00;99056.94;5074080;28;20200;-75
2023/09/04 03:59:11;;;;;;;4.70;3.53;;;;;;;15.54;100.00;99052.50;5073352;28;20228;-75
2023/09/04 04:01:38;;;;;;;4.30;3.30;;;;;;;15.45;100.00;99056.53;5073543;28;20583;-75
2023/09/04 04:04:04;;;;;;;4.20;3.50;;;;;;;15.53;100.00;99066.13;5074439;28;20208;-75
2023/09/04 04:06:30;;;;;;;4.10;3.70;;;;;;;15.62;100.00;99057.56;5087792;28;20210;-76
2023/09/04 04:08:57;;;;;;;3.93;3.60;;;;;;;15.58;100.00;99055.53;5095657;22;20216;-76
2023/09/04 04:11:23;;;;;;;4.43;3.53;;;;;;;15.53;100.00;99056.22;5074086;28;20189;-76
2023/09/04 04:13:50;;;;;;;6.20;3.43;;;;;;;15.42;100.00;99056.19;5074243;28;20200;-76
2023/09/04 04:16:16;;;;;;;4.67;3.50;;;;;;;15.45;100.00;99069.94;5073814;28;20205;-76
2023/09/04 04:18:43;;;;;;;4.40;3.97;;;;;;;15.37;100.00;99066.75;5073654;28;20230;-76
2023/09/04 04:21:09;;;;;;;3.87;3.50;;;;;;;15.41;100.00;99073.28;5077363;28;20234;-76
2023/09/04 04:23:36;;;;;;;4.47;3.90;;;;;;;15.38;100.00;99069.19;5081957;28;20231;-76
2023/09/04 04:26:03;;;;;;;4.10;3.70;;;;;;;15.44;100.00;99076.34;5073621;28;20679;-76
2023/09/04 04:28:29;;;;;;;5.93;3.70;;;;;;;15.44;100.00;99075.50;5073625;28;20232;-76
2023/09/04 04:30:57;;;;;;;5.10;4.17;;;;;;;15.39;100.00;99076.19;5073669;28;20201;-76
2023/09/04 04:33:23;;;;;;;5.30;3.90;;;;;;;15.36;100.00;99078.50;5073659;28;20696;-76
2023/09/04 04:35:54;;;;;;;4.17;3.80;;;;;;;15.35;100.00;99080.38;5084391;28;20191;-76
2023/09/04 04:38:20;;;;;;;4.83;3.60;;;;;;;15.31;100.00;99079.16;5083261;28;20208;-76
2023/09/04 04:40:47;;;;;;;7.50;4.10;;;;;;;15.32;100.00;99072.72;5081631;28;20208;-76
2023/09/04 04:43:14;;;;;;;5.97;4.03;;;;;;;15.45;100.00;99077.97;5082122;28;20215;-76
2023/09/04 04:45:40;;;;;;;5.80;3.93;;;;;;;15.38;100.00;99082.59;5084955;28;20206;-76
2023/09/04 04:48:07;;;;;;;4.97;3.97;;;;;;;15.29;100.00;99086.56;5076665;28;20250;-76
2023/09/04 04:50:33;;;;;;;5.33;4.00;;;;;;;15.36;100.00;99092.72;5091470;28;20222;-76
2023/09/04 04:52:59;;;;;;;4.90;4.30;;;;;;;15.19;100.00;99093.53;5077118;28;20667;-76
2023/09/04 04:55:26;;;;;;;9.87;4.07;;;;;;;15.27;100.00;99083.31;5088260;28;20223;-76
2023/09/04 04:57:53;;;;;;;4.87;4.10;;;;;;;15.29;100.00;99083.09;5087126;28;20200;-76
2023/09/04 05:00:19;;;;;;;7.93;4.30;;;;;;;15.40;100.00;99072.47;5084882;28;20578;-76
2023/09/04 05:02:46;;;;;;;5.60;4.37;;;;;;;15.38;100.00;99073.75;5092888;28;20592;-76
2023/09/04 05:05:13;;;;;;;5.30;4.80;;;;;;;15.45;100.00;99077.97;5082424;28;20570;-76
2023/09/04 05:07:41;;;;;;;6.43;4.53;;;;;;;15.47;100.00;99078.56;5073304;28;20678;-76
2023/09/04 05:10:08;;;;;;;6.63;4.00;;;;;;;15.44;100.00;99079.03;5073171;28;20235;-76
2023/09/04 05:12:34;;;;;;;6.00;4.03;;;;;;;15.53;100.00;99077.66;5072950;28;20196;-77
2023/09/04 05:15:01;;;;;;;5.37;4.57;;;;;;;15.54;100.00;99073.94;5072746;28;20672;-76
2023/09/04 05:17:27;;;;;;;7.47;4.20;;;;;;;15.51;100.00;99069.03;5073051;28;20216;-76
2023/09/04 05:19:54;;;;;;;5.60;5.00;;;;;;;15.58;100.00;99069.78;5072551;28;20315;-76
2023/09/04 05:22:20;;;;;;;5.47;4.57;;;;;;;15.64;100.00;99068.84;5072311;28;20230;-76
2023/09/04 05:24:46;;;;;;;5.77;4.70;;;;;;;15.63;100.00;99069.91;5072706;28;20238;-76
2023/09/04 05:27:13;;;;;;;4.70;4.30;;;;;;;15.67;100.00;99068.41;5073136;28;20204;-76
2023/09/04 05:29:39;;;;;;;4.77;4.33;;;;;;;15.75;100.00;99067.28;5073027;28;20635;-76
2023/09/04 05:32:05;;;;;;;4.77;4.03;;;;;;;15.80;100.00;99059.34;5074587;28;20227;-76
2023/09/04 05:34:32;;;;;;;7.33;4.50;;;;;;;15.87;100.00;99066.25;5078994;28;20207;-77
2023/09/04 05:36:58;;;;;;;7.10;5.13;;;;;;;15.87;100.00;99057.41;5093753;28;20203;-77
2023/09/04 05:39:25;;;;;;;5.57;4.17;;;;;;;15.90;100.00;99051.56;5094211;28;20224;-77
2023/09/04 05:41:51;;;;;;;6.40;4.23;;;;;;;15.92;100.00;99050.31;5085982;28;20251;-77
2023/09/04 05:44:17;;;;;;;6.17;4.10;;;;;;;15.98;100.00;99062.00;5095769;28;20208;-77
2023/09/04 05:46:44;;;;;;;5.43;4.60;;;;;;;16.08;100.00;99054.19;5077040;28;20545;-76
2023/09/04 05:49:10;;;;;;;6.20;4.53;;;;;;;16.14;100.00;99053.25;5076507;28;20303;-77
2023/09/04 05:51:37;;;;;;;5.87;4.30;;;;;;;16.15;100.00;99055.72;5088566;28;20547;-77
2023/09/04 05:54:03;;;;;;;5.07;4.30;;;;;;;16.24;100.00;99056.22;5077573;28;20196;-76
2023/09/04 05:56:30;;;;;;;6.47;4.17;;;;;;;16.32;100.00;99061.22;5076757;28;20208;-75
2023/09/04 05:58:57;;;;;;;4.73;4.33;;;;;;;16.39;100.00;99054.72;5076093;28;20231;-74
2023/09/04 06:01:24;;;;;;;5.17;4.50;;;;;;;16.61;100.00;99053.13;5089089;28;20279;-75
2023/09/04 06:03:50;;;;;;;6.60;4.80;;;;;;;16.61;100.00;99066.53;5085474;28;20299;-75
2023/09/04 06:06:17;;;;;;;4.83;4.43;;;;;;;16.62;100.00;99060.16;5094065;28;20196;-75
2023/09/04 06:08:44;;;;;;;5.50;4.80;;;;;;;16.61;100.00;99066.53;5095462;28;20231;-77
2023/09/04 06:11:12;;;;;;;5.13;4.60;;;;;;;16.72;100.00;99068.44;5092464;28;20214;-74
2023/09/04 06:13:38;;;;;;;4.87;4.47;;;;;;;16.88;100.00;99077.66;5094316;28;20282;-75
2023/09/04 06:16:04;;;;;;;7.13;4.60;;;;;;;16.89;100.00;99072.06;5093312;28;20200;-75
2023/09/04 06:18:31;;;;;;;5.30;4.80;;;;;;;16.86;100.00;99069.00;5094067;28;20215;-75
2023/09/04 06:20:58;;;;;;;4.50;4.00;;;;;;;16.96;100.00;99071.94;5077295;28;20658;-75
2023/09/04 06:23:24;;;;;;;5.33;4.77;;;;;;;17.01;100.00;99070.16;5075803;28;20221;-75
2023/09/04 06:25:51;;;;;;;5.97;4.50;;;;;;;17.02;100.00;99062.94;5078289;28;20241;-75
2023/09/04 06:28:17;;;;;;;5.63;4.77;;;;;;;17.22;100.00;99074.09;5095830;28;20210;-75
2023/09/04 06:30:44;;;;;;;5.27;4.70;;;;;;;17.13;100.00;99076.34;5094605;28;20251;-75
2023/09/04 06:33:11;;;;;;;6.00;4.50;;;;;;;17.30;100.00;99076.44;5095588;28;20261;-75
2023/09/04 06:35:38;;;;;;;6.40;4.97;;;;;;;17.28;100.00;99068.59;5094186;28;20201;-75
2023/09/04 06:38:05;;;;;;;4.60;4.00;;;;;;;17.35;100.00;99066.63;5083709;28;20203;-75
2023/09/04 06:40:32;;;;;;;6.07;4.10;;;;;;;17.47;100.00;99075.47;5086308;28;20299;-75
2023/09/04 06:42:58;;;;;;;4.90;4.37;;;;;;;17.43;100.00;99068.97;5075229;28;20583;-75
2023/09/04 06:45:24;;;;;;;5.37;4.90;;;;;;;17.44;100.00;99067.06;5076171;28;20548;-75
2023/09/04 06:48:06;;;;;;;4.73;4.33;;;;;;;17.60;100.00;99069.03;5077391;28;20690;-75
2023/09/04 06:50:33;;;;;;;5.10;4.60;;;;;;;17.75;100.00;99072.84;5074128;28;20592;-75
2023/09/04 06:52:59;;;;;;;4.93;4.43;;;;;;;17.72;100.00;99065.22;5085135;28;20311;-76
2023/09/04 06:55:25;;;;;;;4.63;4.20;;;;;;;17.74;100.00;99056.94;5080157;28;20200;-76
2023/09/04 06:57:52;;;;;;;5.57;4.60;;;;;;;17.80;100.00;99059.47;5081267;28;20196;-76
2023/09/04 07:00:19;;;;;;;4.90;4.50;;;;;;;17.91;100.00;99053.22;5073750;28;20577;-76
2023/09/04 07:02:45;;;;;;;4.60;4.20;;;;;;;18.09;100.00;99057.59;5094249;28;20219;-76
2023/09/04 07:05:12;;;;;;;6.53;4.43;;;;;;;18.12;100.00;99062.47;5094770;28;20734;-76
2023/09/04 07:07:38;;;;;;;4.57;4.17;;;;;;;18.07;100.00;99057.81;5094629;28;20207;-76
2023/09/04 07:10:08;;;;;;;5.53;4.53;;;;;;;18.08;100.00;99058.63;5095242;28;20362;-76
2023/09/04 07:12:38;;;;;;;4.80;4.00;;;;;;;18.15;100.00;99054.72;5076721;28;20203;-76
2023/09/04 07:15:05;;;;;;;4.73;4.07;;;;;;;18.46;100.00;99059.56;5074790;28;20211;-76
2023/09/04 07:17:31;;;;;;;4.43;4.03;;;;;;;18.59;100.00;99053.06;5074569;28;20209;-76
2023/09/04 07:19:58;;;;;;;10.87;4.30;;;;;;;18.42;100.00;99057.63;5074888;28;20726;-76
2023/09/04 07:22:25;;;;;;;5.53;3.60;;;;;;;18.61;100.00;99059.84;5074976;28;20221;-76
2023/09/04 07:24:52;;;;;;;5.60;3.73;;;;;;;18.67;100.00;99058.00;5074708;28;20207;-76
2023/09/04 07:27:19;;;;;;;3.97;3.67;;;;;;;18.66;100.00;99059.91;5074824;28;20310;-76
2023/09/04 07:29:45;;;;;;;4.30;3.90;;;;;;;18.74;100.00;99054.09;5074939;28;20228;-77
2023/09/04 07:32:11;;;;;;;4.60;4.07;;;;;;;18.87;100.00;99064.53;5074927;28;20205;-76
2023/09/04 07:34:39;;;;;;;4.93;3.37;;;;;;;18.87;100.00;99066.41;5075847;28;20211;-77
2023/09/04 07:37:05;;;;;;;4.20;3.83;;;;;;;19.06;100.00;99065.91;5074728;28;20204;-76
2023/09/04 07:39:31;;;;;;;4.07;3.77;;;;;;;19.21;100.00;99057.19;5074785;28;20232;-77
2023/09/04 07:41:58;;;;;;;4.07;3.67;;;;;;;19.35;100.00;99063.84;5074803;28;20197;-76
2023/09/04 07:44:24;;;;;;;3.77;3.40;;;;;;;19.35;100.00;99056.59;5074853;28;20204;-76
2023/09/04 07:46:51;;;;;;;4.50;3.57;;;;;;;19.38;100.00;99064.19;5074585;28;20211;-77
2023/09/04 07:49:17;;;;;;;3.90;3.60;;;;;;;19.35;100.00;99071.94;5073872;28;20548;-77
2023/09/04 07:51:43;;;;;;;5.17;3.83;;;;;;;19.46;100.00;99068.31;5074726;28;20213;-77
2023/09/04 07:54:11;;;;;;;4.07;3.77;;;;;;;19.48;100.00;99065.38;5074250;28;20223;-77
2023/09/04 07:56:38;;;;;;;4.67;3.77;;;;;;;19.55;100.00;99070.31;5074043;28;20659;-77
2023/09/04 07:59:05;;;;;;;6.23;3.90;;;;;;;19.54;100.00;99055.22;5075378;28;20235;-76
2023/09/04 08:01:32;;;;;;;3.63;3.37;;;;;;;19.62;100.00;99055.84;5093747;28;20200;-76
2023/09/04 08:03:59;;;;;;;4.10;3.70;;;;;;;19.69;100.00;99062.66;5094533;28;20230;-76
2023/09/04 08:06:25;;;;;;;4.90;3.53;;;;;;;19.63;100.00;99055.59;5094242;28;20208;-76
2023/09/04 08:08:52;;;;;;;3.90;3.50;;;;;;;19.81;100.00;99063.31;5094322;28;20251;-76
2023/09/04 08:11:18;;;;;;;4.27;3.43;;;;;;;20.04;100.00;99062.22;5094366;28;20198;-76
2023/09/04 08:13:45;;;;;;;5.77;3.40;;;;;;;20.15;100.00;99070.19;5094438;28;20207;-74
2023/09/04 08:16:11;;;;;;;3.83;3.53;;;;;;;20.19;100.00;99057.81;5094271;28;20200;-74
2023/09/04 08:18:37;;;;;;;4.03;3.73;;;;;;;20.14;100.00;99065.03;5093907;28;20207;-75
2023/09/04 08:21:04;;;;;;;4.40;4.00;;;;;;;20.22;100.00;99061.88;5081079;28;20284;-75
2023/09/04 08:23:30;;;;;;;3.70;3.40;;;;;;;20.23;100.00;99058.09;5073644;28;20231;-75
2023/09/04 08:26:00;;;;;;;4.43;3.60;;;;;;;20.32;100.00;99062.81;5091668;28;20211;-75
2023/09/04 08:28:27;;;;;;;4.40;3.60;;;;;;;20.44;100.00;99062.63;5092944;28;20670;-75
2023/09/04 08:30:54;;;;;;;4.07;3.30;;;;;;;20.34;100.00;99059.84;5093823;28;20260;-75
2023/09/04 08:33:21;;;;;;;3.70;3.37;;;;;;;20.33;100.00;99058.19;5093769;28;20686;-75
2023/09/04 08:35:47;;;;;;;3.53;3.33;;;;;;;20.54;100.00;99060.81;5093526;28;20204;-75
2023/09/04 08:38:13;;;;;;;3.70;3.40;;;;;;;20.59;100.00;99062.75;5093513;28;20579;-75
2023/09/04 08:40:42;;;;;;;4.00;3.37;;;;;;;20.78;100.00;99063.94;5094232;28;20243;-77
2023/09/04 08:43:09;;;;;;;4.37;3.97;;;;;;;20.78;100.00;99053.97;5093651;28;20224;-77
2023/09/04 08:45:37;;;;;;;3.67;3.33;;;;;;;20.83;100.00;99047.78;5093824;28;20225;-76
2023/09/04 08:48:04;;;;;;;3.73;3.30;;;;;;;20.94;100.00;99050.31;5093571;28;20208;-76
2023/09/04 08:50:31;;;;;;;3.57;3.30;;;;;;;21.25;100.00;99046.69;5093527;28;20593;-76
2023/09/04 08:52:58;;;;;;;5.17;3.67;;;;;;;21.23;100.00;99048.03;5093654;28;20203;-75
2023/09/04 08:55:25;;;;;;;3.57;3.30;;;;;;;21.40;100.00;99051.38;5093333;28;20254;-75
2023/09/04 08:57:51;;;;;;;3.23;3.03;;;;;;;21.57;99.75;99047.38;5093549;28;20204;-75
2023/09/04 09:00:18;;;;;;;3.40;3.10;;;;;;;21.71;99.48;99053.13;5093499;28;20231;-75
2023/09/04 09:02:45;;;;;;;3.50;3.27;;;;;;;21.76;99.04;99056.69;5093375;28;20224;-75
2023/09/04 09:05:17;;;;;;;3.70;3.40;;;;;;;21.92;99.91;99047.50;5093446;28;20379;-75
2023/09/04 09:07:46;;;;;;;3.70;3.33;;;;;;;22.21;97.27;99045.13;5096129;28;20191;-75
2023/09/04 09:10:18;;;;;;;4.28;3.17;;;;;;;22.25;94.75;99044.28;5097275;28;20620;-75
2023/09/04 09:12:44;;;;;;;4.07;3.35;;;;;;;22.27;96.00;99041.31;5097475;28;20184;-75
2023/09/04 09:15:11;;;;;;;4.32;3.38;;;;;;;22.45;92.50;99038.06;5097211;28;20567;-76
2023/09/04 09:17:50;;;;;;;3.60;2.60;;;;;;;22.66;92.52;99031.59;5097524;28;20204;-75
2023/09/04 09:20:30;;;;;;;4.38;3.53;;;;;;;22.46;95.27;99027.00;5097425;28;20227;-75
2023/09/04 09:22:57;;;;;;;3.75;3.28;;;;;;;22.62;94.61;99025.91;5097522;28;20208;-75
2023/09/04 09:25:23;;;;;;;3.13;2.92;;;;;;;22.77;95.08;99028.59;5097338;28;20233;-75
2023/09/04 09:27:50;;;;;;;3.50;3.10;;;;;;;22.85;90.40;99032.66;5097928;28;20203;-75
2023/09/04 09:30:16;;;;;;;3.28;3.08;;;;;;;22.77;94.68;99033.19;5097147;28;20232;-75
2023/09/04 09:32:43;;;;;;;3.20;3.00;;;;;;;22.83;93.94;99035.63;5097223;28;20199;-75
2023/09/04 09:35:10;;;;;;;3.67;3.28;;;;;;;23.05;91.29;99029.88;5097169;28;20210;-75
2023/09/04 09:37:36;;;;;;;3.00;2.80;;;;;;;23.23;85.15;99029.31;5097229;28;20287;-75
2023/09/04 09:40:08;;;;;;;2.70;2.50;;;;;;;23.31;81.53;99034.16;5096875;28;20220;-75
2023/09/04 09:42:35;;;;;;;3.10;2.90;;;;;;;23.39;81.20;99029.00;5097066;28;20223;-75
2023/09/04 09:45:06;;;;;;;2.80;2.60;;;;;;;23.55;80.60;99029.72;5096845;28;20201;-75
2023/09/04 09:47:33;;;;;;;3.35;2.70;;;;;;;23.52;78.37;99022.16;5096830;28;20192;-75
2023/09/04 09:49:59;;;;;;;3.25;2.95;;;;;;;23.53;80.48;99011.00;5096669;28;20220;-75
2023/09/04 09:52:25;;;;;;;3.00;2.80;;;;;;;23.82;78.24;99019.25;5096553;28;20226;-75
2023/09/04 09:54:52;;;;;;;2.90;2.70;;;;;;;24.09;77.35;99008.78;5096067;28;20578;-75
2023/09/04 09:57:20;;;;;;;2.60;2.40;;;;;;;24.02;76.63;99011.00;5096015;28;20671;-75
2023/09/04 09:59:51;;;;;;;2.40;2.30;;;;;;;23.96;78.43;99003.97;5096412;28;20227;-75
2023/09/04 10:02:22;;;;;;;3.20;2.90;;;;;;;24.05;76.14;99008.53;5096073;28;20203;-76
2023/09/04 10:04:49;;;;;;;3.13;2.67;;;;;;;24.22;74.46;99008.13;5096352;28;20208;-75
2023/09/04 10:07:18;;;;;;;4.35;2.90;;;;;;;24.06;74.60;99009.38;5096042;28;20215;-75
2023/09/04 10:09:46;;;;;;;3.22;2.97;;;;;;;24.09;67.58;99003.34;5096046;28;20231;-76
2023/09/04 10:12:21;;;;;;;2.92;2.72;;;;;;;24.27;67.86;99000.75;5095938;28;20206;-75
2023/09/04 10:14:50;;;;;;;2.88;2.60;;;;;;;24.25;66.65;98981.19;5078371;28;20192;-75
2023/09/04 10:17:21;;;;;;;3.15;2.70;;;;;;;24.11;65.61;98984.88;5096236;28;20206;-75
2023/09/04 10:19:49;;;;;;;2.85;2.55;;;;;;;24.31;66.08;98990.13;5094752;28;20706;-76
2023/09/04 10:22:22;;;;;;;3.22;2.70;;;;;;;24.44;66.26;98984.03;5096090;28;20204;-76
2023/09/04 10:25:04;;;;;;;3.10;2.65;;;;;;;24.56;67.85;98976.31;5095877;28;20181;-75
2023/09/04 10:27:33;;;;;;;2.78;2.53;;;;;;;24.74;65.66;98970.19;5096940;28;20211;-75
2023/09/04 10:30:07;;;;;;;2.92;2.65;;;;;;;24.89;63.56;98978.16;5096025;28;20224;-76
2023/09/04 10:32:35;;;;;;;2.92;2.72;;;;;;;24.76;62.17;98967.97;5095937;28;20204;-76
2023/09/04 10:35:02;;;;;;;2.40;2.30;;;;;;;24.74;61.03;98962.03;5095509;28;20208;-76
2023/09/04 10:37:30;;;;;;;3.35;3.08;;;;;;;24.84;63.11;98965.44;5096064;28;20546;-75
2023/09/04 10:39:58;;;;;;;2.95;2.75;;;;;;;24.82;62.34;98961.38;5095391;28;20310;-75
2023/09/04 10:42:27;;;;;;;2.97;2.78;;;;;;;24.90;59.04;98958.84;5095730;28;20199;-75
2023/09/04 10:44:56;;;;;;;3.00;2.80;;;;;;;24.95;55.32;98960.69;5095596;28;20200;-76
2023/09/04 10:47:23;;;;;;;2.80;2.60;;;;;;;24.73;57.09;98963.09;5095348;28;20254;-75
2023/09/04 10:49:50;;;;;;;2.65;2.45;;;;;;;24.88;54.18;98963.75;5095673;28;20227;-76
2023/09/04 10:52:16;;;;;;;2.78;2.50;;;;;;;25.05;52.15;98957.88;5095627;28;20200;-76
2023/09/04 10:54:43;;;;;;;3.00;2.80;;;;;;;25.17;50.69;98952.78;5095402;28;20200;-75
2023/09/04 10:57:12;;;;;;;2.92;2.72;;;;;;;25.29;50.29;98953.22;5094891;28;20200;-75
2023/09/04 10:59:54;;;;;;;2.67;2.58;;;;;;;25.14;50.97;98948.75;5094637;28;20706;-76
2023/09/04 11:02:36;;;;;;;2.80;2.60;;;;;;;25.22;51.97;98950.84;5095350;28;20207;-76
2023/09/04 11:05:03;;;;;;;3.00;2.60;;;;;;;25.32;50.42;98944.47;5095441;28;20210;-75
2023/09/04 11:07:35;;;;;;;3.10;2.70;;;;;;;25.55;49.91;98946.34;5094911;28;20204;-75
2023/09/04 11:10:07;;;;;;;3.65;2.55;;;;;;;25.57;51.60;98935.97;5094854;28;20585;-75
2023/09/04 11:12:36;;;;;;;3.10;2.88;;;;;;;25.28;47.56;98929.84;5094398;28;20468;-76
2023/09/04 11:15:15;;;;;;;2.80;2.60;;;;;;;25.48;48.14;98933.09;5094848;28;20667;-75
2023/09/04 11:17:46;;;;;;;3.03;2.83;;;;;;;25.44;49.66;98923.06;5095091;28;20287;-76
2023/09/04 11:20:17;;;;;;;2.70;2.50;;;;;;;25.68;46.52;98919.16;5094792;28;20690;-76
2023/09/04 11:22:48;;;;;;;2.72;2.53;;;;;;;25.51;47.19;98913.41;5094952;28;20258;-75
2023/09/04 11:25:15;;;;;;;3.30;3.00;;;;;;;25.54;47.72;98914.75;5094825;28;20261;-76
2023/09/04 11:27:44;;;;;;;3.55;3.25;;;;;;;25.51;47.13;98909.91;5094652;28;20204;-76